• Join FlightAware (Why Join?)
  • Login
  • US Flag 
04:53AM EDT


 

Airport Tracker/Info


-or-


 

Live Flight TrackerFlight Track Log ✈ SWA265 ✈ 24-Apr-2013 ✈ KLAS - KBWI

Flight Track Log - Related Links

Times and Time Zones

All times are in EDT time to prevent confusion due to time zone crossing. See the SWA265 flight status page for this flight to view local times or setup timezone preferences in your user account.

Time Position Orientation Groundspeed Altitude Reporting Facility
EDT Latitude Longitude Course Direction KTS MPH feet Rate Location/Type
10:47AM 36.0767 -115.2467 271° West 212 244 5,700  Level Los Angeles Center
10:47AM 36.0819 -115.2753 283° West 235 270 6,900 3,420 Climbing Los Angeles Center
10:48AM 36.1228 -115.2939 340° North 229 264 9,100 2,160 Climbing Los Angeles Center
10:49AM 36.1831 -115.2233 43° Northeast 310 357 10,900 2,100 Climbing Los Angeles Center
10:50AM 36.1969 -115.1067 82° East 347 399 13,600 2,580 Climbing Los Angeles Center
10:51AM 36.1978 -114.9761 90° East 375 432 16,200 2,520 Climbing Los Angeles Center
10:52AM 36.1994 -114.8378 89° East 399 459 18,800 2,460 Climbing Los Angeles Center
10:53AM 36.1994 -114.6922 90° East 419 482 21,300 2,100 Climbing Los Angeles Center
10:54AM 36.1961 -114.5414 92° East 437 503 23,200 1,920 Climbing Los Angeles Center
10:55AM 36.1942 -114.3858 91° East 450 518 25,300 1,860 Climbing Los Angeles Center
10:56AM 36.1933 -114.2256 90° East 462 532 27,100 1,620 Climbing Los Angeles Center
10:57AM 36.2147 -114.0608 81° East 481 554 28,700 1,680 Climbing Los Angeles Center
10:58AM 36.2381 -113.8597 82° East 491 565 30,600 1,680 Climbing Los Angeles Center
10:59AM 36.2589 -113.6897 81° East 497 572 32,200 1,380 Climbing Los Angeles Center
11:00AM 36.2783 -113.5181 82° East 502 578 33,500 1,260 Climbing Los Angeles Center
11:01AM 36.2986 -113.3447 82° East 507 583 34,900 720 Climbing Los Angeles Center
11:02AM 36.3317 -113.1736 76° East 507 583 35,000 60 Climbing Los Angeles Center
11:03AM 36.3894 -113.0172 65° Northeast 503 579 35,100 480 Climbing Los Angeles Center
11:04AM 36.4481 -112.8597 65° Northeast 504 580 36,000 420 Climbing Los Angeles Center
11:05AM 36.5169 -112.6708 66° East 504 580 36,000 60 Level Los Angeles Center
11:06AM 36.5750 -112.5131 65° Northeast 504 580 36,200 480 Climbing Los Angeles Center
11:07AM 36.6333 -112.3547 65° Northeast 505 581 37,000 360 Climbing Los Angeles Center
11:08AM 36.6908 -112.1956 66° East 507 583 37,000  Level Los Angeles Center
11:09AM 36.7367 -112.0692 66° East 506 582 37,000  Level Denver Center
11:10AM 36.7931 -111.9119 66° East 502 578 37,000  Level Denver Center
11:11AM 36.8483 -111.7547 66° East 498 573 37,000  Level Denver Center
11:12AM 36.9061 -111.5975 65° Northeast 501 577 37,000  Level Denver Center
11:13AM 36.9583 -111.4392 68° East 500 575 37,000  Level Denver Center
11:14AM 37.0144 -111.2464 70° East 496 571 37,000  Level Denver Center
11:15AM 37.0628 -111.0831 70° East 502 578 37,000  Level Denver Center
11:16AM 37.1106 -110.9192 70° East 504 580 37,000  Level Denver Center
11:17AM 37.1589 -110.7542 70° East 506 582 37,000  Level Denver Center
11:18AM 37.2072 -110.5867 70° East 512 589 37,000  Level Denver Center
11:19AM 37.2556 -110.4208 70° East 509 586 37,000  Level Denver Center
11:20AM 37.3131 -110.2194 70° East 512 589 37,000  Level Denver Center
11:21AM 37.3619 -110.0506 70° East 510 587 37,000  Level Denver Center
11:22AM 37.4078 -109.8894 70° East 509 586 37,000  Level Denver Center
11:24AM 37.4614 -109.6994 70° East 513 590 37,000  Level Denver Center
11:25AM 37.5067 -109.5358 71° East 516 594 37,000  Level Denver Center
11:26AM 37.5600 -109.3458 70° East 515 593 37,000  Level Denver Center
11:27AM 37.6056 -109.1811 71° East 518 596 37,000  Level Denver Center
11:28AM 37.6589 -108.9892 71° East 518 596 37,000  Level Denver Center
11:29AM 37.7044 -108.8206 71° East 527 606 37,000  Level Denver Center
11:30AM 37.7497 -108.6494 71° East 534 615 37,000  Level Denver Center
11:31AM 37.8017 -108.4553 71° East 527 606 37,000  Level Denver Center
11:32AM 37.8469 -108.2936 70° East 518 596 37,000  Level Denver Center
11:33AM 37.8994 -108.0961 71° East 524 603 37,000  Level Denver Center
11:34AM 37.9439 -107.9256 72° East 530 610 37,000  Level Denver Center
11:35AM 37.9961 -107.7294 71° East 528 608 37,000  Level Denver Center
11:36AM 38.0406 -107.5581 72° East 532 612 37,000  Level Denver Center
11:37AM 38.0911 -107.3611 72° East 535 616 37,000  Level Denver Center
11:38AM 38.1350 -107.1900 72° East 534 615 37,000  Level Denver Center
11:39AM 38.1869 -106.9883 72° East 534 615 37,000  Level Denver Center
11:40AM 38.2297 -106.8181 72° East 534 615 37,000  Level Denver Center
11:41AM 38.2803 -106.6161 72° East 537 618 37,000  Level Denver Center
11:42AM 38.3225 -106.4472 72° East 538 619 37,000  Level Denver Center
11:43AM 38.3675 -106.2639 73° East 540 621 37,000  Level Denver Center
11:44AM 38.4111 -106.0831 73° East 538 619 37,000  Level Denver Center
11:45AM 38.4636 -105.8658 73° East 535 616 37,000  Level Denver Center
11:46AM 38.5044 -105.7008 72° East 538 619 37,000  Level Denver Center
11:47AM 38.5561 -105.4856 73° East 540 621 37,000  Level Denver Center
11:48AM 38.6000 -105.3028 73° East 537 618 37,000  Level Denver Center
11:50AM 38.6431 -105.1169 73° East 542 624 37,000  Level Denver Center
11:51AM 38.6939 -104.8997 73° East 544 626 37,000  Level Denver Center
11:52AM 38.7364 -104.7158 73° East 539 620 37,000  Level Denver Center
11:53AM 38.7867 -104.4978 73° East 543 625 37,000  Level Denver Center
11:54AM 38.8289 -104.3125 74° East 542 624 37,000  Level Denver Center
11:55AM 38.8719 -104.1258 73° East 542 624 37,000  Level Denver Center
11:56AM 38.9122 -103.9400 74° East 542 624 37,000  Level Denver Center
11:57AM 38.9544 -103.7517 74° East 546 628 37,000  Level Denver Center
11:58AM 39.0100 -103.4947 74° East 555 639 37,000  Level Denver Center
11:59AM 39.0522 -103.3014 74° East 557 641 37,000  Level Denver Center
12:00PM 39.0942 -103.1081 74° East 558 642 37,000  Level Denver Center
12:01PM 39.1347 -102.9178 75° East 551 634 37,000  Level Denver Center
12:02PM 39.1767 -102.7150 75° East 547 629 37,000  Level Denver Center
12:03PM 39.2147 -102.5336 75° East 547 629 37,000  Level Denver Center
12:04PM 39.2594 -102.3214 75° East 548 631 37,000  Level Denver Center
12:05PM 39.2967 -102.1406 75° East 545 627 37,000  Level Denver Center
12:06PM 39.3383 -101.9372 75° East 543 625 37,000  Level Denver Center
12:07PM 39.3792 -101.7267 76° East 542 624 37,000  Level Denver Center
12:08PM 39.3758 -101.5394 91° East 544 626 37,000  Level Denver Center
12:09PM 39.3589 -101.3539 97° East 546 628 37,000  Level Denver Center
12:10PM 39.3406 -101.1381 96° East 543 625 37,000  Level Denver Center
12:11PM 39.3256 -100.9533 96° East 542 624 37,000  Level Denver Center
12:13PM 39.3061 -100.7369 97° East 544 626 37,000  Level Denver Center
12:14PM 39.2889 -100.5531 97° East 542 624 37,000  Level Denver Center
12:15PM 39.2686 -100.3364 97° East 545 627 37,000  Level Denver Center
12:16PM 39.2608 -100.1511 93° East 544 626 37,000  Level Denver Center
12:17PM 39.2664 -99.9342 88° East 543 625 37,000  Level Denver Center
12:18PM 39.2719 -99.7483 88° East 543 625 37,000  Level Denver Center
12:19PM 39.2761 -99.5319 89° East 541 623 37,000  Level Denver Center
12:20PM 39.2806 -99.3458 88° East 544 626 37,000  Level Denver Center
12:21PM 39.2844 -99.1303 89° East 542 624 37,000  Level Denver Center
12:22PM 39.2892 -98.9217 88° East 542 624 37,000  Level Denver Center
12:23PM 39.2922 -98.7286 89° East 540 621 37,000  Level Denver Center
12:24PM 39.2942 -98.5342 89° East 542 624 37,000  Level Denver Center
12:25PM 39.2983 -98.2994 89° East 538 619 37,000  Level Kansas City Center
12:26PM 39.2978 -98.1194 90° East 533 613 37,000  Level Kansas City Center
12:27PM 39.3003 -97.9058 89° East 533 613 37,000  Level Kansas City Center
12:28PM 39.3042 -97.7244 88° East 539 620 37,000  Level Kansas City Center
12:29PM 39.3047 -97.5058 90° East 535 616 37,000  Level Kansas City Center
12:30PM 39.3053 -97.3256 90° East 529 609 37,000  Level Kansas City Center
12:31PM 39.3050 -97.1133 90° East 530 610 37,000  Level Kansas City Center
12:32PM 39.3056 -96.9328 90° East 527 606 37,000  Level Kansas City Center
12:33PM 39.3056 -96.7228 90° East 524 603 37,000  Level Kansas City Center
12:34PM 39.3056 -96.5422 90° East 524 603 37,000  Level Kansas City Center
12:35PM 39.3047 -96.3583 90° East 523 602 37,000  Level Kansas City Center
12:36PM 39.3031 -96.1719 91° East 520 598 37,000  Level Kansas City Center
12:37PM 39.3011 -95.9736 91° East 520 598 37,000  Level Kansas City Center
12:39PM 39.2994 -95.7664 91° East 525 604 37,000  Level Kansas City Center
12:40PM 39.2981 -95.5864 91° East 523 602 37,000  Level Kansas City Center
12:41PM 39.2953 -95.3772 91° East 520 598 37,000  Level Kansas City Center
12:42PM 39.2928 -95.1892 91° East 524 603 37,000  Level Kansas City Center
12:43PM 39.2900 -95.0072 91° East 522 601 37,000 240 Level Kansas City Center
12:44PM 39.2853 -94.7953 92° East 525 604 37,600 600 Climbing Kansas City Center
12:45PM 39.3039 -94.6100 83° East 539 620 38,300 660 Climbing Kansas City Center
12:46PM 39.3308 -94.3925 81° East 549 632 39,000 300 Climbing Kansas City Center
12:47PM 39.3544 -94.1992 81° East 542 624 39,000  Level Kansas City Center
12:48PM 39.3681 -94.0261 84° East 535 616 39,000  Level Kansas City Center
12:49PM 39.3867 -93.8133 83° East 533 613 39,000  Level Kansas City Center
12:50PM 39.4064 -93.6219 82° East 531 611 39,000  Level Kansas City Center
12:51PM 39.4228 -93.4347 83° East 528 608 39,000  Level Kansas City Center
12:52PM 39.4375 -93.2514 84° East 523 602 39,000  Level Kansas City Center
12:53PM 39.4550 -93.0661 83° East 524 603 39,000  Level Kansas City Center
12:54PM 39.4706 -92.8419 85° East 526 605 39,000  Level Kansas City Center
12:55PM 39.4856 -92.6600 84° East 521 600 39,000  Level Kansas City Center
12:56PM 39.5003 -92.4758 84° East 520 598 39,000  Level Kansas City Center
12:57PM 39.5144 -92.2942 84° East 518 596 39,000  Level Kansas City Center
12:58PM 39.5303 -92.0761 85° East 514 592 39,000  Level Kansas City Center
12:59PM 39.5433 -91.8900 85° East 520 598 39,000  Level Kansas City Center
01:00PM 39.5564 -91.7061 85° East 519 597 39,000  Level Kansas City Center
01:01PM 39.5692 -91.5219 85° East 520 598 39,000  Level Kansas City Center
01:02PM 39.5831 -91.3261 85° East 518 596 39,000  Level Kansas City Center
01:03PM 39.5964 -91.1383 85° East 521 600 39,000  Level Kansas City Center
01:04PM 39.6083 -90.9500 85° East 522 601 39,000  Level Kansas City Center
01:05PM 39.6225 -90.7217 85° East 527 606 39,000  Level Kansas City Center
01:06PM 39.6347 -90.5322 85° East 527 606 39,000  Level Kansas City Center
01:07PM 39.6464 -90.3414 85° East 528 608 39,000  Level Kansas City Center
01:08PM 39.6572 -90.1500 86° East 531 611 39,000  Level Kansas City Center
01:10PM 39.6681 -89.9589 86° East 530 610 39,000  Level Kansas City Center
01:11PM 39.6789 -89.7697 86° East 528 608 39,000  Level Kansas City Center
01:12PM 39.6889 -89.5794 86° East 528 608 39,000  Level Kansas City Center
01:13PM 39.7003 -89.3647 86° East 529 609 39,000  Level Kansas City Center
01:14PM 39.7100 -89.1767 86° East 526 605 39,000  Level Kansas City Center
01:15PM 39.7189 -88.9875 86° East 527 606 39,000  Level Kansas City Center
01:16PM 39.7281 -88.7994 86° East 526 605 39,000  Level Kansas City Center
01:17PM 39.7375 -88.5722 87° East 526 605 39,000  Level Kansas City Center
01:18PM 39.7469 -88.3817 86° East 528 608 39,000  Level Kansas City Center
01:19PM 39.7558 -88.2014 86° East 528 608 39,000  Level Kansas City Center
01:19PM 39.7578 -88.0789 89° East 526 605 39,000  Level Indianapolis Center
01:20PM 39.7658 -87.8900 87° East 523 602 39,000  Level Indianapolis Center
01:21PM 39.7725 -87.7022 87° East 521 600 39,000  Level Indianapolis Center
01:22PM 39.7803 -87.5142 87° East 517 595 39,000  Level Indianapolis Center
01:23PM 39.7850 -87.3278 88° East 513 590 39,000  Level Indianapolis Center
01:25PM 39.7608 -87.1497 100° East 499 574 39,000  Level Indianapolis Center
01:26PM 39.7350 -86.9419 99° East 499 574 39,000  Level Indianapolis Center
01:27PM 39.7131 -86.7647 99° East 497 572 39,000  Level Indianapolis Center
01:28PM 39.6928 -86.5875 98° East 497 572 39,000  Level Indianapolis Center
01:29PM 39.6708 -86.4103 99° East 499 574 39,000  Level Indianapolis Center
01:30PM 39.6808 -86.2222 86° East 520 598 39,000  Level Indianapolis Center
01:31PM 39.6989 -86.0125 84° East 523 602 39,000  Level Indianapolis Center
01:32PM 39.7142 -85.8194 84° East 534 615 39,000  Level Indianapolis Center
01:33PM 39.7286 -85.6269 84° East 533 613 39,000  Level Indianapolis Center
01:34PM 39.7444 -85.4353 84° East 531 611 39,000  Level Indianapolis Center
01:35PM 39.7589 -85.2444 84° East 528 608 39,000  Level Indianapolis Center
01:36PM 39.7736 -85.0544 84° East 526 605 39,000  Level Indianapolis Center
01:37PM 39.7894 -84.8522 84° East 526 605 39,000  Level Indianapolis Center
01:38PM 39.8042 -84.6619 84° East 526 605 39,000  Level Indianapolis Center
01:39PM 39.8175 -84.4708 85° East 527 606 39,000  Level Indianapolis Center
01:40PM 39.8328 -84.2461 85° East 530 610 39,000  Level Indianapolis Center
01:41PM 39.8458 -84.0539 85° East 529 609 39,000  Level Indianapolis Center
01:42PM 39.8581 -83.8628 85° East 526 605 39,000  Level Indianapolis Center
01:43PM 39.8697 -83.6719 85° East 524 603 39,000  Level Indianapolis Center
01:44PM 39.8833 -83.4725 85° East 519 597 39,000  Level Indianapolis Center
01:45PM 39.8950 -83.2822 85° East 518 596 39,000  Level Indianapolis Center
01:46PM 39.9064 -83.0939 85° East 516 594 39,000  Level Indianapolis Center
01:47PM 39.9169 -82.9042 86° East 519 597 39,000  Level Indianapolis Center
01:48PM 39.9278 -82.7147 86° East 520 598 39,000  Level Indianapolis Center
01:49PM 39.9375 -82.5258 86° East 519 597 39,000  Level Indianapolis Center
01:50PM 39.9478 -82.3378 86° East 517 595 39,000  Level Indianapolis Center
01:51PM 39.9572 -82.1503 86° East 515 593 39,000  Level Indianapolis Center
01:52PM 39.9664 -81.9628 86° East 515 593 39,000  Level Indianapolis Center
01:53PM 39.9772 -81.7469 86° East 517 595 39,000  Level Indianapolis Center
01:54PM 39.9622 -81.5614 96° East 502 578 39,000  Level Indianapolis Center
01:55PM 39.9436 -81.3875 98° East 506 582 39,000  Level Indianapolis Center
01:56PM 39.9222 -81.2078 99° East 503 579 39,000  Level Indianapolis Center
01:57PM 39.9139 -81.0972 96° East 503 579 39,000  Level Cleveland Center
01:58PM 39.8917 -80.9158 99° East 503 579 39,000  Level Cleveland Center
01:59PM 39.8689 -80.7372 99° East 503 579 39,000  Level Cleveland Center
02:00PM 39.8483 -80.5589 98° East 503 579 39,000  Level Cleveland Center
02:01PM 39.8272 -80.3750 98° East 503 579 39,000 -120 Level Cleveland Center
02:02PM 39.8039 -80.1939 99° East 503 579 38,800 -1,260 Descending Cleveland Center
02:03PM 39.7822 -80.0158 99° East 503 579 36,500 -2,400 Descending Cleveland Center
02:04PM 39.7603 -79.8406 99° East 503 579 34,100 -2,340 Descending Cleveland Center
02:05PM 39.7383 -79.6706 99° East 492 566 31,900 -1,980 Descending Cleveland Center
02:07PM 39.7022 -79.3783 99° East 463 533 28,400 -1,920 Descending Washington Center
02:08PM 39.6819 -79.2236 100° East 438 504 26,500 -1,740 Descending Washington Center
02:09PM 39.6614 -79.0714 100° East 425 489 25,000 -780 Descending Washington Center
02:10PM 39.6225 -78.9025 107° East 433 498 25,000 -1,200 Level Washington Center
02:11PM 39.5869 -78.7503 107° East 441 507 22,600 -2,460 Descending Washington Center
02:12PM 39.5533 -78.5981 106° East 441 507 20,100 -2,400 Descending Washington Center
02:13PM 39.5214 -78.4539 106° East 434 499 17,800 -2,160 Descending Washington Center
02:14PM 39.4914 -78.3131 105° East 421 484 15,800 -1,380 Descending Washington Center
02:15PM 39.4589 -78.1747 107° East 408 470 15,100 -660 Descending Washington Center
02:16PM 39.4514 -78.0319 94° East 397 457 14,500 -1,140 Descending Washington Center
02:17PM 39.4503 -77.8814 90° East 402 463 12,900 -1,380 Descending Washington Center
02:18PM 39.4486 -77.7361 91° East 407 468 11,800 -960 Descending Washington Center
02:19PM 39.4469 -77.5936 91° East 402 463 11,000 -360 Descending Washington Center
02:20PM 39.4450 -77.4539 91° East 402 463 11,100  Climbing Washington Center
02:21PM 39.4500 -77.3500 86° East 339 390 11,000 -60 Descending Potomac TRACON
02:22PM 39.4667 -77.2167 81° East 332 382 11,000 -600 Level Potomac TRACON
02:23PM 39.4667 -77.1000 90° East 337 388 9,800 -1,380 Descending Potomac TRACON
02:24PM 39.4833 -76.9833 79° East 334 384 8,300 -1,440 Descending Potomac TRACON
02:25PM 39.4667 -76.8833 102° East 299 344 6,900 -1,260 Descending Potomac TRACON
02:26PM 39.4000 -76.8000 136° Southeast 271 312 5,800 -1,020 Descending Potomac TRACON
02:27PM 39.3500 -76.7667 153° Southeast 245 282 4,900 -1,320 Descending Potomac TRACON
02:28PM 39.3167 -76.8167 229° Southwest 229 264 3,200 -960 Descending Potomac TRACON
02:29PM 39.2667 -76.8667 218° Southwest 218 251 3,000 -120 Descending Potomac TRACON
02:30PM 39.2167 -76.8333 153° Southeast 202 232 3,000 -540 Level Potomac TRACON
02:31PM 39.1833 -76.7833 131° Southeast 191 220 2,000 -1,080 Descending Potomac TRACON
02:32PM 39.1833 -76.7167 90° East 151 174 900 -1,140 Descending Potomac TRACON
02:34PM 39.1667 -76.6667 142° Southeast  Level FlightAware Approximate
02:41PM 39.1754 -76.6683 142° Southeast  Level Estimated
02:42PM 39.1754 -76.6683 142° Southeast  Level Estimated
02:43PM 39.1754 -76.6683 142° Southeast  Level Estimated